Monday, June 25, 2018, 7:33 PM GMT
Back to Local

CYWA, Petawawa, Ont.

Location: , , Canada Lat: 45.95
Local Time: 7:33 PM GMT (19:33 GMT) Lon: -77.317
Time Zone: GMT Elev: 426 ft

Show me the last for .
Show Coded

Time T Td Feel RH Dir Speed Gust Alt SLP Vis Weather Sky Remarks
2018-06-25 19:00 70 37 - 30 300° 7 - 30.21 30.21 9 CLR None
2018-06-25 18:00 68 36 - 30 320° 14 - 30.21 30.22 9 CLR None
2018-06-25 17:00 66 37 - 34 320° 12 20 30.21 30.21 9 CLR None
2018-06-25 16:00 64 41 - 42 360° 6 - 30.21 30.21 9 FEW052 None
2018-06-25 15:00 63 41 - 45 330° 7 - 30.21 30.21 9 CLR None
2018-06-25 14:00 61 41 - 48 340° 8 - 30.20 30.21 9 CLR None
2018-06-25 13:00 57 41 - 54 320° 6 - 30.19 30.20 9 CLR None
2018-06-25 12:00 54 39 - 58 360° 8 - 30.16 30.17 9 CLR None
2018-06-25 11:00 52 41 - 66 350° 10 - 30.14 30.15 9 CLR None
2018-06-25 10:00 52 39 - 62 320° 9 - 30.13 30.14 9 CLR None
2018-06-25 09:00 52 41 - 66 340° 9 - 30.11 30.12 9 CLR None
2018-06-25 08:00 52 41 - 66 320° 7 - 30.08 30.09 9 CLR None
2018-06-25 07:00 54 41 - 62 340° 7 - 30.07 30.07 9 CLR None
2018-06-25 06:00 54 43 - 66 320° 6 - 30.05 30.06 9 CLR None
2018-06-25 05:00 50 46 - 87 250° 2 - 30.04 30.05 9 CLR None
2018-06-25 04:00 54 50 - 87 250° 2 - 30.02 30.03 9 CLR None
2018-06-25 03:00 55 54 - 93 280° 3 - 30.00 30.00 9 CLR None
2018-06-25 02:00 57 55 - 93 340° 5 - 29.99 30.00 9 CLR None
2018-06-25 01:00 59 55 - 87 240° 3 - 29.96 29.97 9 CLR None
2018-06-25 00:00 63 55 - 77 270° 5 - 29.96 29.97 9 CLR None
2018-06-24 23:00 64 55 - 72 280° 3 - 29.95 29.96 9 CLR None
2018-06-24 22:00 63 54 - 72 320° 3 - 29.94 29.95 9 CLR None
2018-06-24 21:27 61 54 - 77 320° 7 - 29.95 - 9 FEW027 SCT060 BKN098 None
2018-06-24 21:19 63 55 - 77 310° 5 - 29.95 - 9 -RA BKN025 BKN060 BKN098 None
2018-06-24 21:06 61 54 - 77 350° 7 - 29.95 - 9 -RA OVC022 OVC050 OVC060 OVC077 None
2018-06-24 21:00 61 54 - 77 340° 6 - 29.95 29.96 9 OVC022 OVC050 OVC060 OVC077 None
2018-06-24 20:00 61 54 - 77 340° 8 - 29.95 29.95 9 BKN020 OVC037 OVC050 OVC069 None

Support USWX by starting your Amazon purchase here.